Tiempo atmosférico en la estación meteorológica de Algarrobo, Málaga (80 m.)



Fecha
DESCASC
Temp. máxima en grados centígrados (hora)
DESCASC
Temp. mínima en grados centígrados (hora)
DESCASC
Temp. media en grados centígrados
DESCASC
Racha de viento máxima en m/sg (hora)
DESCASC
Velocidad máxima media en intervalos de 10 minutos(hora)
DESCASC
Precipitaciones diarias en mm
DESCASC
Precipitaciones de 00:00 a 06:00 en mm
DESCASC
Precipitaciones de 06:00 a 12:00 en mm
DESCASC
Precipitaciones de 12:00 a 18:00 en mm
DESCASC
Precipitaciones de 18:00 a 24:00 en mm
DESCASC
17-10-2019 23.8 (18:20) 12.5 (06:10) 18.1 5.28 (17:00) 2.78 (12:30) -- -- -- -- --
16-10-2019 23.2 (12:30) 12.4 (08:00) 17.8 4.44 (13:20) 2.78 (13:20) -- -- -- -- --
15-10-2019 -- (--) -- (--) -- -- (--) -- (--) -- -- -- -- --
14-10-2019 -- (--) -- (--) -- -- (--) -- (--) -- -- -- -- --
13-10-2019 -- (--) -- (--) -- -- (--) -- (--) -- -- -- -- --
12-10-2019 -- (--) -- (--) -- -- (--) -- (--) -- -- -- -- --
11-10-2019 -- (--) -- (--) -- -- (--) -- (--) -- -- -- -- --
10-10-2019 -- (--) -- (--) -- -- (--) -- (--) -- -- -- -- --
09-10-2019 -- (--) -- (--) -- -- (--) -- (--) -- -- -- -- --
08-10-2019 -- (--) -- (--) -- -- (--) -- (--) -- -- -- -- --
07-10-2019 -- (--) -- (--) -- -- (--) -- (--) -- -- -- -- --
06-10-2019 -- (--) -- (--) -- -- (--) -- (--) -- -- -- -- --
05-10-2019 -- (--) -- (--) -- -- (--) -- (--) -- -- -- -- --
04-10-2019 -- (--) -- (--) -- -- (--) -- (--) -- -- -- -- --
03-10-2019 -- (--) -- (--) -- -- (--) -- (--) -- -- -- -- --
02-10-2019 -- (--) -- (--) -- -- (--) -- (--) -- -- -- -- --
01-10-2019 -- (--) -- (--) -- -- (--) -- (--) -- -- -- -- --
30-09-2019 26.7 (18:30) 15.3 (00:00) 21 4.72 (14:50) 2.78 (16:30) -- -- -- -- --
29-09-2019 26.8 (16:40) 17.4 (00:00) 22.1 5 (15:00) 3.33 (15:00) -- -- -- -- --
28-09-2019 26.3 (17:40) 16.5 (00:00) 21.4 4.72 (15:30) 3.33 (16:20) -- -- -- -- --
27-09-2019 25.5 (17:00) 17.7 (00:00) 21.6 5.28 (17:10) 3.06 (13:20) -- -- -- -- --
26-09-2019 26.7 (16:30) 17.6 (00:00) 22.2 7.22 (13:30) 4.72 (14:50) -- -- -- -- --
25-09-2019 30.7 (18:10) 16.4 (00:00) 23.6 8.61 (14:10) 5 (14:10) -- -- -- -- --
24-09-2019 27 (18:10) 16.2 (00:00) 21.6 4.72 (13:50) 2.78 (12:50) -- -- -- -- --
23-09-2019 26.4 (14:10) 16.4 (00:00) 21.4 6.67 (12:30) 4.44 (13:00) -- -- -- -- --
22-09-2019 26.1 (15:20) 17.9 (00:00) 22 10.28 (16:30) 6.39 (13:50) -- -- -- -- --
21-09-2019 26.2 (15:10) 21.1 (00:00) 23.7 3.89 (11:00) 2.78 (10:50) -- -- -- -- --
20-09-2019 27.8 (13:50) 20.7 (00:00) 24.3 9.17 (13:40) 4.72 (13:10) -- -- -- -- --
19-09-2019 26.9 (15:10) 18.5 (00:00) 22.7 7.22 (13:40) 4.72 (13:30) -- -- -- -- --

Gráficas

Temp. máximas Temp. mínimas Temp. medias Precipitaciones Rachas de viento máximas Velocidades máximas media en intervalos de 10 minutos

Datos horarios

Fecha y hora oficial Temperatura (ºC) Velocidad del viento (km/h) Dirección del viento Racha (km/h) Dirección de racha Precipitación (mm) Presión (hPa) Tendencia (hPa) Humedad (%)
2019-10-18 23:00:00 17.3 2 Nordeste 5 Norte -- -- -- 86
2019-10-18 22:00:00 18 3 Norte 5 Norte -- -- -- 84
2019-10-18 21:00:00 19.1 0 Calma 8 Sudeste -- -- -- 80
2019-10-18 20:00:00 20.1 4 Sudeste 10 Sur -- -- -- 78
2019-10-18 19:00:00 22.6 8 Sur 11 Sur -- -- -- 67
2019-10-18 18:00:00 24.3 6 Sur 10 Sudoeste -- -- -- 59
2019-10-18 17:00:00 24.2 4 Sudoeste 13 Sudoeste -- -- -- 48
2019-10-18 16:00:00 23.7 4 Sur 12 Sudoeste -- -- -- 52
2019-10-18 15:00:00 22.8 9 Sudoeste 17 Sudoeste -- -- -- 62
2019-10-18 14:00:00 23.3 8 Sur 14 Sudoeste -- -- -- 60
2019-10-18 13:00:00 23.1 6 Sudoeste 12 Sudoeste -- -- -- 56
2019-10-18 12:00:00 23.2 8 Sudoeste 12 Sur -- -- -- 51
2019-10-18 11:00:00 21.8 3 Sur 6 Sur -- -- -- 46
2019-10-18 10:00:00 17.3 0 Calma 4 Norte -- -- -- 61
2019-10-18 09:00:00 14.3 3 Norte 10 Norte -- -- -- 71
2019-10-18 08:00:00 14.1 4 Norte 8 Norte -- -- -- 73
2019-10-18 07:00:00 14.1 5 Norte 7 Norte -- -- -- 74
2019-10-18 06:00:00 13.8 4 Norte 5 Norte -- -- -- 73
2019-10-18 05:00:00 14.1 4 Norte 6 Norte -- -- -- 68
2019-10-18 04:00:00 14.2 4 Norte 7 Norte -- -- -- 69
2019-10-18 03:00:00 14.2 2 Norte 5 Norte -- -- -- 68
2019-10-18 02:00:00 14.6 0 Calma 6 Norte -- -- -- 69
2019-10-18 01:00:00 14.5 3 Norte 6 Norte -- -- -- 70
2019-10-18 00:00:00 15 3 Nordeste 5 Nordeste -- -- -- 77
2019-10-17 23:00:00 15.5 3 Norte 6 Este -- -- -- 78
2019-10-17 22:00:00 16.1 2 Nordeste 6 Nordeste -- -- -- 65
2019-10-17 21:00:00 17.5 4 Norte 5 Norte -- -- -- 67
2019-10-17 20:00:00 20 3 Nordeste 5 Este -- -- -- 58
2019-10-17 19:00:00 22.7 2 Sur 10 Sur -- -- -- 53
2019-10-17 18:00:00 23.4 4 Sudoeste 14 Sudoeste -- -- -- 51
2019-10-17 17:00:00 23 5 Sur 19 Oeste -- -- -- 52
2019-10-17 16:00:00 22.4 5 Sudoeste 16 Sudoeste -- -- -- 57
2019-10-17 15:00:00 23.1 7 Sudoeste 14 Sur -- -- -- 56
2019-10-17 14:00:00 22.4 5 Sur 17 Sudoeste -- -- -- 55
2019-10-17 13:00:00 22 9 Sudoeste 15 Sudoeste -- -- -- 53
2019-10-17 12:00:00 21.4 6 Sur 10 Sudoeste -- -- -- 42
2019-10-17 11:00:00 20.4 5 Sudoeste 11 Noroeste -- -- -- 42
2019-10-17 10:00:00 16.6 4 Sur 8 Norte -- -- -- 52
2019-10-17 09:00:00 13.6 0 Calma 13 Norte -- -- -- 56
2019-10-17 08:00:00 14.2 7 Norte 15 Norte -- -- -- 52
2019-10-17 07:00:00 12.8 6 Norte 9 Norte -- -- -- 68
2019-10-17 06:00:00 12.6 4 Norte 6 Norte -- -- -- 77
2019-10-17 05:00:00 12.8 2 Norte 7 Norte -- -- -- 72
2019-10-17 04:00:00 13.6 5 Norte 9 Norte -- -- -- 68
2019-10-17 03:00:00 13.9 5 Nordeste 9 Norte -- -- -- 72
2019-10-17 02:00:00 13.3 3 Nordeste 8 Norte -- -- -- 74
2019-10-17 01:00:00 14.5 5 Norte 8 Norte -- -- -- 68
2019-10-17 00:00:00 14.5 3 Nordeste 9 Nordeste -- -- -- 65
2019-10-16 23:00:00 15.2 6 Norte 10 Norte -- -- -- 57
2019-10-16 22:00:00 15.6 4 Norte 9 Norte -- -- -- 57
2019-10-16 21:00:00 16 5 Norte 9 Norte -- -- -- 60
2019-10-16 20:00:00 18.7 2 Norte 7 Sudoeste -- -- -- 64
2019-10-16 19:00:00 21 6 Sudoeste 10 Sudoeste -- -- -- 57
2019-10-16 18:00:00 22.3 7 Sudoeste 11 Sudoeste -- -- -- 49
2019-10-16 17:00:00 22.8 6 Sudoeste 14 Sudoeste -- -- -- 47
2019-10-16 16:00:00 22.2 10 Sudoeste 15 Sudoeste -- -- -- 53
2019-10-16 15:00:00 22.8 8 Sur 15 Sur -- -- -- 51
2019-10-16 14:00:00 22.6 9 Sudoeste 16 Sudoeste -- -- -- 55
2019-10-16 13:00:00 23 10 Sur 14 Sudoeste -- -- -- 40
2019-10-16 12:00:00 22.5 5 Sudoeste 10 Sur -- -- -- 35
2019-10-16 11:00:00 20.8 4 Sudoeste 8 Sur -- -- -- 38
2019-10-16 10:00:00 16.1 4 Norte 7 Norte -- -- -- 53
2019-10-16 09:00:00 12.4 4 Nordeste 11 Norte -- -- -- 62
2019-10-16 08:00:00 12.4 6 Norte 9 Norte -- -- -- 61
2019-10-16 07:00:00 12.6 5 Norte 9 Norte -- -- -- 62
2019-10-16 06:00:00 12.8 5 Norte 12 Norte -- -- -- 63
2019-10-16 05:00:00 13.5 6 Norte 10 Norte -- -- -- 58
2019-10-16 04:00:00 13.6 3 Norte 9 Nordeste -- -- -- 61
2019-10-16 03:00:00 13.8 4 Norte 9 Norte -- -- -- 62
2019-10-16 02:00:00 14.2 4 Norte 12 Norte -- -- -- 57
2019-10-16 01:00:00 15.2 4 Norte 12 Nordeste -- -- -- 48
2019-10-16 00:00:00 15.1 6 Norte 9 Norte -- -- -- 54
2019-10-15 23:00:00 14.8 3 Norte 9 Norte -- -- -- 63
2019-10-15 22:00:00 15.6 4 Norte 9 Norte -- -- -- 64
2019-10-15 21:00:00 16.1 3 Norte 5 Nordeste -- -- -- 64
2019-10-15 20:00:00 18.6 2 Nordeste 7 Nordeste -- -- -- 57
2019-10-15 19:00:00 21.2 3 Noroeste 14 Sudoeste -- -- -- 51
2019-10-15 18:00:00 21.7 9 Sudoeste 17 Sudoeste -- -- -- 56
2019-10-15 17:00:00 20.6 9 Sudoeste 24 Oeste -- -- -- 60
2019-10-15 16:00:00 23 9 Sudoeste 22 Oeste -- -- -- 40
2019-10-15 15:00:00 23.7 9 Sur 17 Sur -- -- -- 39
2019-10-15 14:00:00 -- 10 Sur 19 Sudeste -- -- -- --
2019-10-15 13:00:00 23.6 10 Sur 17 Sur -- -- -- 33
2019-10-15 12:00:00 -- -- -- -- -- -- -- -- --
2019-10-15 11:00:00 -- -- -- -- -- -- -- -- --
2019-10-15 10:00:00 -- -- -- -- -- -- -- -- --
2019-10-15 09:00:00 -- -- -- -- -- -- -- -- --
2019-10-15 08:00:00 -- -- -- -- -- -- -- -- --
2019-10-15 07:00:00 -- -- -- -- -- -- -- -- --
2019-10-15 06:00:00 -- -- -- -- -- -- -- -- --
2019-10-15 05:00:00 -- -- -- -- -- -- -- -- --
2019-10-15 04:00:00 -- -- -- -- -- -- -- -- --
2019-10-15 03:00:00 -- -- -- -- -- -- -- -- --
2019-10-15 02:00:00 -- -- -- -- -- -- -- -- --
2019-10-15 01:00:00 -- -- -- -- -- -- -- -- --
2019-10-15 00:00:00 -- -- -- -- -- -- -- -- --
2019-10-14 23:00:00 -- -- -- -- -- -- -- -- --
2019-10-14 22:00:00 -- -- -- -- -- -- -- -- --
2019-10-14 21:00:00 -- -- -- -- -- -- -- -- --
2019-10-14 20:00:00 -- -- -- -- -- -- -- -- --
2019-10-14 19:00:00 -- -- -- -- -- -- -- -- --
2019-10-14 18:00:00 -- -- -- -- -- -- -- -- --
2019-10-14 17:00:00 -- -- -- -- -- -- -- -- --
2019-10-14 16:00:00 -- -- -- -- -- -- -- -- --
2019-10-14 15:00:00 -- -- -- -- -- -- -- -- --
2019-10-14 14:00:00 -- -- -- -- -- -- -- -- --
2019-10-14 13:00:00 -- -- -- -- -- -- -- -- --
2019-10-14 12:00:00 -- -- -- -- -- -- -- -- --
2019-10-14 11:00:00 -- -- -- -- -- -- -- -- --
2019-10-14 10:00:00 -- -- -- -- -- -- -- -- --
2019-10-14 09:00:00 -- -- -- -- -- -- -- -- --
2019-10-14 08:00:00 -- -- -- -- -- -- -- -- --
2019-10-14 07:00:00 -- -- -- -- -- -- -- -- --
2019-10-14 06:00:00 -- -- -- -- -- -- -- -- --
2019-10-14 05:00:00 -- -- -- -- -- -- -- -- --
2019-10-14 04:00:00 -- -- -- -- -- -- -- -- --
2019-10-14 03:00:00 -- -- -- -- -- -- -- -- --
2019-10-14 02:00:00 -- -- -- -- -- -- -- -- --
2019-10-14 01:00:00 -- -- -- -- -- -- -- -- --
2019-10-14 00:00:00 -- -- -- -- -- -- -- -- --
2019-10-13 23:00:00 -- -- -- -- -- -- -- -- --
2019-10-13 22:00:00 -- -- -- -- -- -- -- -- --
2019-10-13 21:00:00 -- -- -- -- -- -- -- -- --
2019-10-13 20:00:00 -- -- -- -- -- -- -- -- --
2019-10-13 19:00:00 -- -- -- -- -- -- -- -- --
2019-10-13 18:00:00 -- -- -- -- -- -- -- -- --
2019-10-13 17:00:00 -- -- -- -- -- -- -- -- --
2019-10-13 16:00:00 -- -- -- -- -- -- -- -- --
2019-10-13 15:00:00 -- -- -- -- -- -- -- -- --
2019-10-13 14:00:00 -- -- -- -- -- -- -- -- --
2019-10-13 13:00:00 -- -- -- -- -- -- -- -- --
2019-10-13 12:00:00 -- -- -- -- -- -- -- -- --
2019-10-13 11:00:00 -- -- -- -- -- -- -- -- --
2019-10-13 10:00:00 -- -- -- -- -- -- -- -- --
2019-10-13 09:00:00 -- -- -- -- -- -- -- -- --
2019-10-13 08:00:00 -- -- -- -- -- -- -- -- --
2019-10-13 07:00:00 -- -- -- -- -- -- -- -- --
2019-10-13 06:00:00 -- -- -- -- -- -- -- -- --
2019-10-13 05:00:00 -- -- -- -- -- -- -- -- --
2019-10-13 04:00:00 -- -- -- -- -- -- -- -- --
2019-10-13 03:00:00 -- -- -- -- -- -- -- -- --
2019-10-13 02:00:00 -- -- -- -- -- -- -- -- --
2019-10-13 01:00:00 -- -- -- -- -- -- -- -- --
2019-10-13 00:00:00 -- -- -- -- -- -- -- -- --
2019-10-12 23:00:00 -- -- -- -- -- -- -- -- --
2019-10-12 22:00:00 -- -- -- -- -- -- -- -- --
2019-10-12 21:00:00 -- -- -- -- -- -- -- -- --
2019-10-12 20:00:00 -- -- -- -- -- -- -- -- --
2019-10-12 19:00:00 -- -- -- -- -- -- -- -- --
2019-10-12 18:00:00 -- -- -- -- -- -- -- -- --
2019-10-12 17:00:00 -- -- -- -- -- -- -- -- --
2019-10-12 16:00:00 -- -- -- -- -- -- -- -- --
2019-10-12 15:00:00 -- -- -- -- -- -- -- -- --
2019-10-12 14:00:00 -- -- -- -- -- -- -- -- --
2019-10-12 13:00:00 -- -- -- -- -- -- -- -- --
2019-10-12 12:00:00 -- -- -- -- -- -- -- -- --
2019-10-12 11:00:00 -- -- -- -- -- -- -- -- --
2019-10-12 10:00:00 -- -- -- -- -- -- -- -- --
2019-10-12 09:00:00 -- -- -- -- -- -- -- -- --
2019-10-12 08:00:00 -- -- -- -- -- -- -- -- --
2019-10-12 07:00:00 -- -- -- -- -- -- -- -- --
2019-10-12 06:00:00 -- -- -- -- -- -- -- -- --
2019-10-12 05:00:00 -- -- -- -- -- -- -- -- --
2019-10-12 04:00:00 -- -- -- -- -- -- -- -- --
2019-10-12 03:00:00 -- -- -- -- -- -- -- -- --
2019-10-12 02:00:00 -- -- -- -- -- -- -- -- --
2019-10-12 01:00:00 -- -- -- -- -- -- -- -- --
2019-10-12 00:00:00 -- -- -- -- -- -- -- -- --
2019-10-11 23:00:00 -- -- -- -- -- -- -- -- --
2019-10-11 22:00:00 -- -- -- -- -- -- -- -- --
2019-10-11 21:00:00 -- -- -- -- -- -- -- -- --
2019-10-11 20:00:00 -- -- -- -- -- -- -- -- --
2019-10-11 19:00:00 -- -- -- -- -- -- -- -- --
2019-10-11 18:00:00 -- -- -- -- -- -- -- -- --
2019-10-11 17:00:00 -- -- -- -- -- -- -- -- --
2019-10-11 16:00:00 -- -- -- -- -- -- -- -- --
2019-10-11 15:00:00 -- -- -- -- -- -- -- -- --
2019-10-11 14:00:00 -- -- -- -- -- -- -- -- --
2019-10-11 13:00:00 -- -- -- -- -- -- -- -- --
2019-10-11 12:00:00 -- -- -- -- -- -- -- -- --
2019-10-11 11:00:00 -- -- -- -- -- -- -- -- --
2019-10-11 10:00:00 -- -- -- -- -- -- -- -- --
2019-10-11 09:00:00 -- -- -- -- -- -- -- -- --
2019-10-11 08:00:00 -- -- -- -- -- -- -- -- --
2019-10-11 07:00:00 -- -- -- -- -- -- -- -- --
2019-10-11 06:00:00 -- -- -- -- -- -- -- -- --
2019-10-11 05:00:00 -- -- -- -- -- -- -- -- --
2019-10-11 04:00:00 -- -- -- -- -- -- -- -- --
2019-10-11 03:00:00 -- -- -- -- -- -- -- -- --
2019-10-11 02:00:00 -- -- -- -- -- -- -- -- --
2019-10-11 01:00:00 -- -- -- -- -- -- -- -- --
2019-10-11 00:00:00 -- -- -- -- -- -- -- -- --
2019-10-10 23:00:00 -- -- -- -- -- -- -- -- --
2019-10-10 22:00:00 -- -- -- -- -- -- -- -- --
2019-10-10 21:00:00 -- -- -- -- -- -- -- -- --
2019-10-10 20:00:00 -- -- -- -- -- -- -- -- --
2019-10-10 19:00:00 -- -- -- -- -- -- -- -- --
2019-10-10 18:00:00 -- -- -- -- -- -- -- -- --
2019-10-10 17:00:00 -- -- -- -- -- -- -- -- --
2019-10-10 16:00:00 -- -- -- -- -- -- -- -- --
2019-10-10 15:00:00 -- -- -- -- -- -- -- -- --
2019-10-10 14:00:00 -- -- -- -- -- -- -- -- --
2019-10-10 13:00:00 -- -- -- -- -- -- -- -- --
2019-10-10 12:00:00 -- -- -- -- -- -- -- -- --
2019-10-10 11:00:00 -- -- -- -- -- -- -- -- --
2019-10-10 10:00:00 -- -- -- -- -- -- -- -- --
2019-10-10 09:00:00 -- -- -- -- -- -- -- -- --
2019-10-10 08:00:00 -- -- -- -- -- -- -- -- --
2019-10-10 07:00:00 -- -- -- -- -- -- -- -- --
2019-10-10 06:00:00 -- -- -- -- -- -- -- -- --
2019-10-10 05:00:00 -- -- -- -- -- -- -- -- --
2019-10-10 04:00:00 -- -- -- -- -- -- -- -- --
2019-10-10 03:00:00 -- -- -- -- -- -- -- -- --
2019-10-10 02:00:00 -- -- -- -- -- -- -- -- --
2019-10-10 01:00:00 -- -- -- -- -- -- -- -- --
2019-10-10 00:00:00 -- -- -- -- -- -- -- -- --
2019-10-09 23:00:00 -- -- -- -- -- -- -- -- --
2019-10-09 22:00:00 -- -- -- -- -- -- -- -- --
2019-10-09 21:00:00 -- -- -- -- -- -- -- -- --
2019-10-09 20:00:00 -- -- -- -- -- -- -- -- --
2019-10-09 19:00:00 -- -- -- -- -- -- -- -- --
2019-10-09 18:00:00 -- -- -- -- -- -- -- -- --
2019-10-09 17:00:00 -- -- -- -- -- -- -- -- --
2019-10-09 16:00:00 -- -- -- -- -- -- -- -- --
2019-10-09 15:00:00 -- -- -- -- -- -- -- -- --
2019-10-09 14:00:00 -- -- -- -- -- -- -- -- --
2019-10-09 13:00:00 -- -- -- -- -- -- -- -- --
2019-10-09 12:00:00 -- -- -- -- -- -- -- -- --
2019-10-09 11:00:00 -- -- -- -- -- -- -- -- --
2019-10-09 10:00:00 -- -- -- -- -- -- -- -- --
2019-10-09 09:00:00 -- -- -- -- -- -- -- -- --
2019-10-09 08:00:00 -- -- -- -- -- -- -- -- --
2019-10-09 07:00:00 -- -- -- -- -- -- -- -- --
2019-10-09 06:00:00 -- -- -- -- -- -- -- -- --
2019-10-09 05:00:00 -- -- -- -- -- -- -- -- --
2019-10-09 04:00:00 -- -- -- -- -- -- -- -- --
2019-10-09 03:00:00 -- -- -- -- -- -- -- -- --
2019-10-09 02:00:00 -- -- -- -- -- -- -- -- --
2019-10-09 01:00:00 -- -- -- -- -- -- -- -- --
2019-10-09 00:00:00 -- -- -- -- -- -- -- -- --
2019-10-08 23:00:00 -- -- -- -- -- -- -- -- --
2019-10-08 22:00:00 -- -- -- -- -- -- -- -- --
2019-10-08 21:00:00 -- -- -- -- -- -- -- -- --
2019-10-08 20:00:00 -- -- -- -- -- -- -- -- --
2019-10-08 19:00:00 -- -- -- -- -- -- -- -- --
2019-10-08 18:00:00 -- -- -- -- -- -- -- -- --
2019-10-08 17:00:00 -- -- -- -- -- -- -- -- --
2019-10-08 16:00:00 -- -- -- -- -- -- -- -- --
2019-10-08 15:00:00 -- -- -- -- -- -- -- -- --
2019-10-08 14:00:00 -- -- -- -- -- -- -- -- --
2019-10-08 13:00:00 -- -- -- -- -- -- -- -- --
2019-10-08 12:00:00 -- -- -- -- -- -- -- -- --
2019-10-08 11:00:00 -- -- -- -- -- -- -- -- --
2019-10-08 10:00:00 -- -- -- -- -- -- -- -- --
2019-10-08 09:00:00 -- -- -- -- -- -- -- -- --
2019-10-08 08:00:00 -- -- -- -- -- -- -- -- --
2019-10-08 07:00:00 -- -- -- -- -- -- -- -- --
2019-10-08 06:00:00 -- -- -- -- -- -- -- -- --
2019-10-08 05:00:00 -- -- -- -- -- -- -- -- --
2019-10-08 04:00:00 -- -- -- -- -- -- -- -- --
2019-10-08 03:00:00 -- -- -- -- -- -- -- -- --
2019-10-08 02:00:00 -- -- -- -- -- -- -- -- --
2019-10-08 01:00:00 -- -- -- -- -- -- -- -- --
2019-10-08 00:00:00 -- -- -- -- -- -- -- -- --
2019-10-07 23:00:00 -- -- -- -- -- -- -- -- --
2019-10-07 22:00:00 -- -- -- -- -- -- -- -- --
2019-10-07 21:00:00 -- -- -- -- -- -- -- -- --
2019-10-07 20:00:00 -- -- -- -- -- -- -- -- --
2019-10-07 19:00:00 -- -- -- -- -- -- -- -- --
2019-10-07 18:00:00 -- -- -- -- -- -- -- -- --
2019-10-07 17:00:00 -- -- -- -- -- -- -- -- --
2019-10-07 16:00:00 -- -- -- -- -- -- -- -- --
2019-10-07 15:00:00 -- -- -- -- -- -- -- -- --
2019-10-07 14:00:00 -- -- -- -- -- -- -- -- --
2019-10-07 13:00:00 -- -- -- -- -- -- -- -- --
2019-10-07 12:00:00 -- -- -- -- -- -- -- -- --
2019-10-07 11:00:00 -- -- -- -- -- -- -- -- --
2019-10-07 10:00:00 -- -- -- -- -- -- -- -- --
2019-10-07 09:00:00 -- -- -- -- -- -- -- -- --
2019-10-07 08:00:00 -- -- -- -- -- -- -- -- --
2019-10-07 07:00:00 -- -- -- -- -- -- -- -- --
2019-10-07 06:00:00 -- -- -- -- -- -- -- -- --
2019-10-07 05:00:00 -- -- -- -- -- -- -- -- --
2019-10-07 04:00:00 -- -- -- -- -- -- -- -- --
2019-10-07 03:00:00 -- -- -- -- -- -- -- -- --
2019-10-07 02:00:00 -- -- -- -- -- -- -- -- --
2019-10-07 01:00:00 -- -- -- -- -- -- -- -- --
2019-10-07 00:00:00 -- -- -- -- -- -- -- -- --
2019-10-06 23:00:00 -- -- -- -- -- -- -- -- --
2019-10-06 22:00:00 -- -- -- -- -- -- -- -- --
2019-10-06 21:00:00 -- -- -- -- -- -- -- -- --
2019-10-06 20:00:00 -- -- -- -- -- -- -- -- --
2019-10-06 19:00:00 -- -- -- -- -- -- -- -- --
2019-10-06 18:00:00 -- -- -- -- -- -- -- -- --
2019-10-06 17:00:00 -- -- -- -- -- -- -- -- --
2019-10-06 16:00:00 -- -- -- -- -- -- -- -- --
2019-10-06 15:00:00 -- -- -- -- -- -- -- -- --
2019-10-06 14:00:00 -- -- -- -- -- -- -- -- --
2019-10-06 13:00:00 -- -- -- -- -- -- -- -- --
2019-10-06 12:00:00 -- -- -- -- -- -- -- -- --
2019-10-06 11:00:00 -- -- -- -- -- -- -- -- --
2019-10-06 10:00:00 -- -- -- -- -- -- -- -- --
2019-10-06 09:00:00 -- -- -- -- -- -- -- -- --
2019-10-06 08:00:00 -- -- -- -- -- -- -- -- --
2019-10-06 07:00:00 -- -- -- -- -- -- -- -- --
2019-10-06 06:00:00 -- -- -- -- -- -- -- -- --
2019-10-06 05:00:00 -- -- -- -- -- -- -- -- --
2019-10-06 04:00:00 -- -- -- -- -- -- -- -- --
2019-10-06 03:00:00 -- -- -- -- -- -- -- -- --
2019-10-06 02:00:00 -- -- -- -- -- -- -- -- --
2019-10-06 01:00:00 -- -- -- -- -- -- -- -- --
2019-10-06 00:00:00 -- -- -- -- -- -- -- -- --
2019-10-05 23:00:00 -- -- -- -- -- -- -- -- --
2019-10-05 22:00:00 -- -- -- -- -- -- -- -- --
2019-10-05 21:00:00 -- -- -- -- -- -- -- -- --
2019-10-05 20:00:00 -- -- -- -- -- -- -- -- --
2019-10-05 19:00:00 -- -- -- -- -- -- -- -- --
2019-10-05 18:00:00 -- -- -- -- -- -- -- -- --
2019-10-05 17:00:00 -- -- -- -- -- -- -- -- --
2019-10-05 16:00:00 -- -- -- -- -- -- -- -- --
2019-10-05 15:00:00 -- -- -- -- -- -- -- -- --
2019-10-05 14:00:00 -- -- -- -- -- -- -- -- --
2019-10-05 13:00:00 -- -- -- -- -- -- -- -- --
2019-10-05 12:00:00 -- -- -- -- -- -- -- -- --
2019-10-05 11:00:00 -- -- -- -- -- -- -- -- --
2019-10-05 10:00:00 -- -- -- -- -- -- -- -- --
2019-10-05 09:00:00 -- -- -- -- -- -- -- -- --
2019-10-05 08:00:00 -- -- -- -- -- -- -- -- --
2019-10-05 07:00:00 -- -- -- -- -- -- -- -- --
2019-10-05 06:00:00 -- -- -- -- -- -- -- -- --
2019-10-05 05:00:00 -- -- -- -- -- -- -- -- --
2019-10-05 04:00:00 -- -- -- -- -- -- -- -- --
2019-10-05 03:00:00 -- -- -- -- -- -- -- -- --
2019-10-05 02:00:00 -- -- -- -- -- -- -- -- --
2019-10-05 01:00:00 -- -- -- -- -- -- -- -- --
2019-10-05 00:00:00 -- -- -- -- -- -- -- -- --
2019-10-04 23:00:00 -- -- -- -- -- -- -- -- --
2019-10-04 22:00:00 -- -- -- -- -- -- -- -- --
2019-10-04 21:00:00 -- -- -- -- -- -- -- -- --
2019-10-04 20:00:00 -- -- -- -- -- -- -- -- --
2019-10-04 19:00:00 -- -- -- -- -- -- -- -- --
2019-10-04 18:00:00 -- -- -- -- -- -- -- -- --
2019-10-04 17:00:00 -- -- -- -- -- -- -- -- --
2019-10-04 16:00:00 -- -- -- -- -- -- -- -- --
2019-10-04 15:00:00 -- -- -- -- -- -- -- -- --
2019-10-04 14:00:00 -- -- -- -- -- -- -- -- --
2019-10-04 13:00:00 -- -- -- -- -- -- -- -- --
2019-10-04 12:00:00 -- -- -- -- -- -- -- -- --
2019-10-04 11:00:00 -- -- -- -- -- -- -- -- --
2019-10-04 10:00:00 -- -- -- -- -- -- -- -- --
2019-10-04 09:00:00 -- -- -- -- -- -- -- -- --
2019-10-04 08:00:00 -- -- -- -- -- -- -- -- --
2019-10-04 07:00:00 -- -- -- -- -- -- -- -- --
2019-10-04 06:00:00 -- -- -- -- -- -- -- -- --
2019-10-04 05:00:00 -- -- -- -- -- -- -- -- --
2019-10-04 04:00:00 -- -- -- -- -- -- -- -- --
2019-10-04 03:00:00 -- -- -- -- -- -- -- -- --
2019-10-04 02:00:00 -- -- -- -- -- -- -- -- --
2019-10-04 01:00:00 -- -- -- -- -- -- -- -- --
2019-10-04 00:00:00 -- -- -- -- -- -- -- -- --
2019-10-03 23:00:00 -- -- -- -- -- -- -- -- --
2019-10-03 22:00:00 -- -- -- -- -- -- -- -- --
2019-10-03 21:00:00 -- -- -- -- -- -- -- -- --
2019-10-03 20:00:00 -- -- -- -- -- -- -- -- --
2019-10-03 19:00:00 -- -- -- -- -- -- -- -- --
2019-10-03 18:00:00 -- -- -- -- -- -- -- -- --
2019-10-03 17:00:00 -- -- -- -- -- -- -- -- --
2019-10-03 16:00:00 -- -- -- -- -- -- -- -- --
2019-10-03 15:00:00 -- -- -- -- -- -- -- -- --
2019-10-03 14:00:00 -- -- -- -- -- -- -- -- --
2019-10-03 13:00:00 -- -- -- -- -- -- -- -- --
2019-10-03 12:00:00 -- -- -- -- -- -- -- -- --
2019-10-03 11:00:00 -- -- -- -- -- -- -- -- --
2019-10-03 10:00:00 -- -- -- -- -- -- -- -- --
2019-10-03 09:00:00 -- -- -- -- -- -- -- -- --
2019-10-03 08:00:00 -- -- -- -- -- -- -- -- --
2019-10-03 07:00:00 -- -- -- -- -- -- -- -- --
2019-10-03 06:00:00 -- -- -- -- -- -- -- -- --
2019-10-03 05:00:00 -- -- -- -- -- -- -- -- --
2019-10-03 04:00:00 -- -- -- -- -- -- -- -- --
2019-10-03 03:00:00 -- -- -- -- -- -- -- -- --
2019-10-03 02:00:00 -- -- -- -- -- -- -- -- --
2019-10-03 01:00:00 -- -- -- -- -- -- -- -- --
2019-10-03 00:00:00 -- -- -- -- -- -- -- -- --
2019-10-02 23:00:00 -- -- -- -- -- -- -- -- --
2019-10-02 22:00:00 -- -- -- -- -- -- -- -- --
2019-10-02 21:00:00 -- -- -- -- -- -- -- -- --
2019-10-02 20:00:00 -- -- -- -- -- -- -- -- --
2019-10-02 19:00:00 -- -- -- -- -- -- -- -- --
2019-10-02 18:00:00 -- -- -- -- -- -- -- -- --
2019-10-02 17:00:00 -- -- -- -- -- -- -- -- --
2019-10-02 16:00:00 -- -- -- -- -- -- -- -- --
2019-10-02 15:00:00 -- -- -- -- -- -- -- -- --
2019-10-02 14:00:00 -- -- -- -- -- -- -- -- --
2019-10-02 13:00:00 -- -- -- -- -- -- -- -- --
2019-10-02 12:00:00 -- -- -- -- -- -- -- -- --
2019-10-02 11:00:00 -- -- -- -- -- -- -- -- --
2019-10-02 10:00:00 -- -- -- -- -- -- -- -- --
2019-10-02 09:00:00 -- -- -- -- -- -- -- -- --
2019-10-02 08:00:00 -- -- -- -- -- -- -- -- --
2019-10-02 07:00:00 -- -- -- -- -- -- -- -- --
2019-10-02 06:00:00 -- -- -- -- -- -- -- -- --
2019-10-02 05:00:00 -- -- -- -- -- -- -- -- --
2019-10-02 04:00:00 -- -- -- -- -- -- -- -- --
2019-10-02 03:00:00 -- -- -- -- -- -- -- -- --
2019-10-02 02:00:00 -- -- -- -- -- -- -- -- --
2019-10-02 01:00:00 -- -- -- -- -- -- -- -- --
2019-10-02 00:00:00 -- -- -- -- -- -- -- -- --
2019-10-01 23:00:00 -- -- -- -- -- -- -- -- --
2019-10-01 22:00:00 -- -- -- -- -- -- -- -- --
2019-10-01 21:00:00 -- -- -- -- -- -- -- -- --
2019-10-01 20:00:00 -- -- -- -- -- -- -- -- --
2019-10-01 19:00:00 -- -- -- -- -- -- -- -- --
2019-10-01 18:00:00 -- -- -- -- -- -- -- -- --
2019-10-01 17:00:00 -- -- -- -- -- -- -- -- --
2019-10-01 16:00:00 -- -- -- -- -- -- -- -- --
2019-10-01 15:00:00 -- -- -- -- -- -- -- -- --
2019-10-01 14:00:00 -- -- -- -- -- -- -- -- --
2019-10-01 13:00:00 -- -- -- -- -- -- -- -- --
2019-10-01 12:00:00 24.7 9 Sudoeste 14 Oeste -- -- -- 67
2019-10-01 11:00:00 23.7 6 Sudoeste 10 Oeste -- -- -- 67
2019-10-01 10:00:00 20.3 2 Norte 6 Norte -- -- -- 86
2019-10-01 09:00:00 17.1 3 Norte 6 Norte -- -- -- 85
2019-10-01 08:00:00 16.3 4 Norte 6 Norte -- -- -- 91
2019-10-01 07:00:00 16.5 2 Norte 7 Norte -- -- -- 91
2019-10-01 06:00:00 16.6 3 Norte 5 Norte -- -- -- 91
2019-10-01 05:00:00 16.8 4 Norte 6 Norte -- -- -- 91
2019-10-01 04:00:00 17.5 4 Nordeste 5 Nordeste -- -- -- 94
2019-10-01 03:00:00 18.1 3 Norte 5 Norte -- -- -- 94
2019-10-01 02:00:00 18.5 2 Norte 5 Norte -- -- -- 94
2019-10-01 01:00:00 18.9 3 Norte 5 Norte -- -- -- 93
2019-10-01 00:00:00 19.4 3 Norte 4 Norte -- -- -- 93
2019-09-30 23:00:00 20 0 Calma 3 Nordeste -- -- -- 91
2019-09-30 22:00:00 20.7 0 Calma 4 Nordeste -- -- -- 88
2019-09-30 21:00:00 21.9 2 Sur 5 Sur -- -- -- 84
2019-09-30 20:00:00 23.4 3 Sudoeste 11 Sudoeste -- -- -- 74
2019-09-30 19:00:00 25.9 4 Sur 7 Sudoeste -- -- -- 69
2019-09-30 18:00:00 25.7 5 Norte 15 Sudoeste -- -- -- 69
2019-09-30 17:00:00 24.2 9 Sudoeste 17 Sudoeste -- -- -- 75
2019-09-30 16:00:00 24.9 9 Sudoeste 15 Sudoeste -- -- -- 74
2019-09-30 15:00:00 24.4 9 Sudoeste 17 Sudoeste -- -- -- 77
2019-09-30 14:00:00 23.9 9 Sudoeste 15 Sudoeste -- -- -- 79
2019-09-30 13:00:00 24.1 9 Sudoeste 14 Sudoeste -- -- -- 78
2019-09-30 12:00:00 23.6 8 Sur 14 Sur -- -- -- 78
2019-09-30 11:00:00 22.6 5 Sudoeste 12 Sudoeste -- -- -- 80
2019-09-30 10:00:00 20.9 4 Sur 6 Norte -- -- -- 79
2019-09-30 09:00:00 15.7 3 Norte 7 Nordeste -- -- -- 85
2019-09-30 08:00:00 15.6 0 Calma 4 Norte -- -- -- 83
2019-09-30 07:00:00 15.5 0 Calma 4 Norte -- -- -- 85
2019-09-30 06:00:00 16 0 Calma 5 Norte -- -- -- 83
2019-09-30 05:00:00 16.3 3 Norte 11 Nordeste -- -- -- 82
2019-09-30 04:00:00 16.3 4 Norte 8 Nordeste -- -- -- 88
2019-09-30 03:00:00 16.9 2 Noroeste 7 Nordeste -- -- -- 93
2019-09-30 02:00:00 17.8 3 Nordeste 5 Norte -- -- -- 94
2019-09-30 01:00:00 18.8 3 Norte 4 Norte -- -- -- 94
2019-09-30 00:00:00 19.1 2 Norte 4 Norte -- -- -- 93
2019-09-29 23:00:00 19.6 2 Norte 3 Norte -- -- -- 91
2019-09-29 22:00:00 20.5 2 Nordeste 3 Nordeste -- -- -- 89
2019-09-29 21:00:00 21.7 0 Calma 7 Sudoeste -- -- -- 86
2019-09-29 20:00:00 23.1 5 Sudoeste 12 Sudoeste -- -- -- 82
2019-09-29 19:00:00 25.2 8 Sudoeste 12 Sudoeste -- -- -- 72
2019-09-29 18:00:00 26 9 Sudoeste 13 Sudoeste -- -- -- 68
2019-09-29 17:00:00 26.4 9 Sudoeste 14 Sur -- -- -- 65
2019-09-29 16:00:00 26.5 10 Sudoeste 15 Sudoeste -- -- -- 65
2019-09-29 15:00:00 26.3 12 Sudoeste 18 Sur -- -- -- 65
2019-09-29 14:00:00 26 10 Sudoeste 15 Sudoeste -- -- -- 67
2019-09-29 13:00:00 25.2 10 Sur 15 Sudoeste -- -- -- 69
2019-09-29 12:00:00 24.8 8 Sur 14 Sudoeste -- -- -- 73
2019-09-29 11:00:00 22.5 6 Sudoeste 9 Sudoeste -- -- -- 81
2019-09-29 10:00:00 20.9 0 Calma 5 Norte -- -- -- 78
2019-09-29 09:00:00 -- -- -- -- -- -- -- -- --
2019-09-29 08:00:00 -- -- -- -- -- -- -- -- --
2019-09-29 07:00:00 -- -- -- -- -- -- -- -- --
2019-09-29 06:00:00 -- -- -- -- -- -- -- -- --
2019-09-29 05:00:00 -- -- -- -- -- -- -- -- --
2019-09-29 04:00:00 -- -- -- -- -- -- -- -- --
2019-09-29 03:00:00 -- -- -- -- -- -- -- -- --
2019-09-29 02:00:00 18 6 Norte 11 Norte -- -- -- 79
2019-09-29 01:00:00 -- -- -- -- -- -- -- -- --
2019-09-29 00:00:00 19 4 Norte 8 Norte -- -- -- 91
2019-09-28 23:00:00 19.6 3 Norte 4 Norte -- -- -- 91
2019-09-28 22:00:00 20.4 2 Nordeste 3 Norte -- -- -- 89
2019-09-28 21:00:00 21.6 0 Calma 4 Sudoeste -- -- -- 84
2019-09-28 20:00:00 23.4 3 Sudoeste 12 Sur -- -- -- 80
2019-09-28 19:00:00 25.4 9 Sur 12 Sudoeste -- -- -- 71
2019-09-28 18:00:00 26.2 8 Sudoeste 13 Sudoeste -- -- -- 66
2019-09-28 17:00:00 25.9 8 Sur 17 Sudoeste -- -- -- 69
2019-09-28 16:00:00 25.7 10 Sudoeste 17 Sur -- -- -- 71
2019-09-28 15:00:00 24.9 11 Sudoeste 16 Sur -- -- -- 74
2019-09-28 14:00:00 24.6 10 Sudoeste 15 Sudoeste -- -- -- 74
2019-09-28 13:00:00 23.5 8 Sudoeste 14 Sudoeste -- -- -- 78
2019-09-28 12:00:00 21.9 8 Sur 14 Sur -- -- -- 85
2019-09-28 11:00:00 21.8 7 Sur 11 Sudeste -- -- -- 85
2019-09-28 10:00:00 20.9 3 Sur 6 Sur -- -- -- 83
2019-09-28 09:00:00 16.9 3 Nordeste 7 Norte -- -- -- 91
2019-09-28 08:00:00 16.5 0 Calma 7 Norte -- -- -- 90
2019-09-28 07:00:00 16.6 3 Norte 7 Nordeste -- -- -- 91
2019-09-28 06:00:00 16.9 3 Norte 4 Nordeste -- -- -- 91
2019-09-28 05:00:00 17.3 0 Calma 10 Norte -- -- -- 91
2019-09-28 04:00:00 17.9 3 Norte 7 Norte -- -- -- 94
2019-09-28 03:00:00 18.2 0 Calma 4 Nordeste -- -- -- 94
2019-09-28 02:00:00 18.6 2 Nordeste 4 Nordeste -- -- -- 93
2019-09-28 01:00:00 18.9 0 Calma 5 Norte -- -- -- 93
2019-09-28 00:00:00 19.3 2 Nordeste 4 Nordeste -- -- -- 92
2019-09-27 23:00:00 19.8 2 Nordeste 4 Nordeste -- -- -- 91
2019-09-27 22:00:00 20.5 3 Nordeste 4 Nordeste -- -- -- 89
2019-09-27 21:00:00 21.4 0 Calma 6 Oeste -- -- -- 86
2019-09-27 20:00:00 22.8 3 Oeste 9 Oeste -- -- -- 81
2019-09-27 19:00:00 23.9 6 Sudoeste 13 Sudoeste -- -- -- 77
2019-09-27 18:00:00 24.7 8 Sudoeste 19 Sudoeste -- -- -- 74
2019-09-27 17:00:00 25.5 9 Sudoeste 18 Sudoeste -- -- -- 71
2019-09-27 16:00:00 25.2 10 Sudoeste 16 Sur -- -- -- 72
2019-09-27 15:00:00 24.6 10 Sudoeste 17 Sudoeste -- -- -- 75
2019-09-27 14:00:00 24.9 8 Sudoeste 16 Sur -- -- -- 74
2019-09-27 13:00:00 24.3 9 Sur 16 Sudoeste -- -- -- 75
2019-09-27 12:00:00 23.6 8 Sur 14 Sur -- -- -- 78
2019-09-27 11:00:00 22.9 6 Sudoeste 10 Sudoeste -- -- -- 80
2019-09-27 10:00:00 20.7 0 Calma 5 Norte -- -- -- 86
2019-09-27 09:00:00 18.2 3 Norte 5 Norte -- -- -- 92
2019-09-27 08:00:00 18.3 3 Norte 5 Norte -- -- -- 92
2019-09-27 07:00:00 17.8 3 Norte 6 Norte -- -- -- 91
2019-09-27 06:00:00 18.6 4 Norte 6 Norte -- -- -- 93
2019-09-27 05:00:00 18.4 4 Norte 6 Norte -- -- -- 91
2019-09-27 04:00:00 18.8 3 Nordeste 7 Norte -- -- -- 90
2019-09-27 03:00:00 19.4 4 Norte 7 Norte -- -- -- 92
2019-09-27 02:00:00 19.7 4 Norte 6 Norte -- -- -- 92
2019-09-27 01:00:00 19.7 4 Norte 5 Norte -- -- -- 92
2019-09-27 00:00:00 19.9 2 Norte 4 Norte -- -- -- 91
2019-09-26 23:00:00 20.5 0 Calma 4 Nordeste -- -- -- 90
2019-09-26 22:00:00 21 2 Nordeste 4 Nordeste -- -- -- 88
2019-09-26 21:00:00 22.2 0 Calma 5 Sur -- -- -- 84
2019-09-26 20:00:00 23.4 4 Sur 9 Sur -- -- -- 82
2019-09-26 19:00:00 25.2 7 Sur 16 Sudeste -- -- -- 75
2019-09-26 18:00:00 26.2 10 Sur 19 Sur -- -- -- 73
2019-09-26 17:00:00 26.5 12 Sur 20 Sur -- -- -- 71
2019-09-26 16:00:00 26.4 12 Sur 21 Sudoeste -- -- -- 72
2019-09-26 15:00:00 25.6 17 Sur 24 Sur -- -- -- 74
2019-09-26 14:00:00 26 15 Sur 26 Sur -- -- -- 72
2019-09-26 13:00:00 25.7 15 Sur 23 Sur -- -- -- 72
2019-09-26 12:00:00 24.7 13 Sudeste 23 Sur -- -- -- 74
2019-09-26 11:00:00 24.8 11 Sur 21 Sudeste -- -- -- 67
2019-09-26 10:00:00 22.7 0 Calma 6 Norte -- -- -- 68
2019-09-26 09:00:00 17.9 4 Norte 6 Norte -- -- -- 82
2019-09-26 08:00:00 17.8 0 Calma 6 Norte -- -- -- 82
2019-09-26 07:00:00 18 4 Norte 9 Nordeste -- -- -- 77
2019-09-26 06:00:00 19.1 4 Nordeste 11 Nordeste -- -- -- 68
2019-09-26 05:00:00 19.2 4 Norte 14 Norte -- -- -- 63
2019-09-26 04:00:00 18.7 6 Norte 10 Nordeste -- -- -- 69
2019-09-26 03:00:00 19 4 Norte 7 Norte -- -- -- 75
2019-09-26 02:00:00 20.7 0 Calma 12 Sudeste -- -- -- 80
2019-09-26 01:00:00 22.9 5 Sudeste 16 Este -- -- -- 68
2019-09-26 00:00:00 23.2 6 Nordeste 12 Norte -- -- -- 45
2019-09-25 23:00:00 24.3 6 Norte 18 Norte -- -- -- 42
2019-09-25 22:00:00 24.2 10 Norte 18 Norte -- -- -- 47
2019-09-25 21:00:00 22.7 0 Calma 7 Sur -- -- -- 73
2019-09-25 20:00:00 25.2 4 Sudeste 12 Sudoeste -- -- -- 66
2019-09-25 19:00:00 28 11 Sudoeste 25 Oeste -- -- -- 56
2019-09-25 18:00:00 30.2 9 Sur 16 Sudoeste -- -- -- 43
2019-09-25 17:00:00 27.7 12 Sudoeste 28 Sur -- -- -- 59
2019-09-25 16:00:00 28 8 Sudoeste 25 Oeste -- -- -- 56
2019-09-25 15:00:00 26.6 12 Sudoeste 31 Sudoeste -- -- -- 62
2019-09-25 14:00:00 28.3 15 Sudoeste 27 Sudoeste -- -- -- 55
2019-09-25 13:00:00 28.2 10 Sudeste 19 Sudeste -- -- -- 47
2019-09-25 12:00:00 27.2 11 Sudeste 19 Sudeste -- -- -- 45
2019-09-25 11:00:00 26.7 8 Sudeste 15 Sudeste -- -- -- 50
2019-09-25 10:00:00 23.7 2 Oeste 9 Sudeste -- -- -- 58
2019-09-25 09:00:00 18.5 0 Calma 9 Noroeste -- -- -- 73
2019-09-25 08:00:00 17.6 3 Norte 8 Norte -- -- -- 70
2019-09-25 07:00:00 18 3 Oeste 9 Sur -- -- -- 71
2019-09-25 06:00:00 16.9 6 Norte 9 Norte -- -- -- 79
2019-09-25 05:00:00 16.6 0 Calma 5 Norte -- -- -- 83
2019-09-25 04:00:00 17.1 0 Calma 5 Norte -- -- -- 90
2019-09-25 03:00:00 17.1 2 Norte 5 Nordeste -- -- -- 89
2019-09-25 02:00:00 17.4 2 Nordeste 5 Norte -- -- -- 88
2019-09-25 01:00:00 17.9 2 Nordeste 5 Este -- -- -- 88
2019-09-25 00:00:00 18.7 4 Nordeste 6 Nordeste -- -- -- 88
2019-09-24 23:00:00 19.2 2 Este 5 Sur -- -- -- 86
2019-09-24 22:00:00 20.1 2 Sudeste 4 Sur -- -- -- 78
2019-09-24 21:00:00 22 0 Calma 4 Sur -- -- -- 68
2019-09-24 20:00:00 24.7 4 Sur 7 Sudoeste -- -- -- 54
2019-09-24 19:00:00 26.5 4 Sudoeste 10 Sudoeste -- -- -- 43
2019-09-24 18:00:00 26.9 5 Sur 12 Sudoeste -- -- -- 39
2019-09-24 17:00:00 26.1 6 Sudoeste 13 Sudoeste -- -- -- 45
2019-09-24 16:00:00 25.6 7 Sudoeste 15 Sudoeste -- -- -- 54
2019-09-24 15:00:00 25.2 9 Sudoeste 15 Sudoeste -- -- -- 56
2019-09-24 14:00:00 24.1 10 Oeste 17 Oeste -- -- -- 70
2019-09-24 13:00:00 24.6 10 Sudoeste 17 Sur -- -- -- 64
2019-09-24 12:00:00 24.4 6 Sudoeste 13 Sudoeste -- -- -- 60
2019-09-24 11:00:00 24.7 8 Sudoeste 11 Sudoeste -- -- -- 54
2019-09-24 10:00:00 21.9 3 Norte 11 Norte -- -- -- 65
2019-09-24 09:00:00 16.8 5 Norte 8 Norte -- -- -- 84
2019-09-24 08:00:00 16.4 3 Norte 6 Norte -- -- -- 84
2019-09-24 07:00:00 16.5 5 Norte 8 Norte -- -- -- 79
2019-09-24 06:00:00 16.4 2 Norte 5 Norte -- -- -- 82
2019-09-24 05:00:00 17.1 2 Norte 9 Norte -- -- -- 79
2019-09-24 04:00:00 17.4 4 Norte 6 Norte -- -- -- 85
2019-09-24 03:00:00 17.4 4 Norte 5 Norte -- -- -- 83
2019-09-24 02:00:00 17.6 3 Norte 4 Norte -- -- -- 80
2019-09-24 01:00:00 18 0 Calma 5 Nordeste -- -- -- 79
2019-09-24 00:00:00 18.5 2 Este 5 Norte -- -- -- 81
2019-09-23 23:00:00 19.3 2 Nordeste 4 Norte -- -- -- 86
2019-09-23 22:00:00 20.1 0 Calma 3 Sur -- -- -- 82
2019-09-23 21:00:00 21.7 2 Sur 4 Sur -- -- -- 78
2019-09-23 20:00:00 23.4 3 Sudoeste 7 Sudoeste -- -- -- 69
2019-09-23 19:00:00 25 4 Sudoeste 13 Sur -- -- -- 60
2019-09-23 18:00:00 25.3 9 Sudoeste 14 Sudoeste -- -- -- 66
2019-09-23 17:00:00 25.5 9 Sudoeste 16 Sudoeste -- -- -- 62
2019-09-23 16:00:00 26.2 10 Sur 17 Sur -- -- -- 58
2019-09-23 15:00:00 26.3 12 Sur 17 Sur -- -- -- 57
2019-09-23 14:00:00 26.3 10 Sur 19 Sur -- -- -- 58
2019-09-23 13:00:00 24.9 16 Sur 24 Sur -- -- -- 57
2019-09-23 12:00:00 25.3 12 Sur 18 Sur -- -- -- 58
2019-09-23 11:00:00 25.1 8 Sur 10 Sur -- -- -- 51
2019-09-23 10:00:00 22 3 Norte 13 Nordeste -- -- -- 50
2019-09-23 09:00:00 17.3 4 Norte 8 Norte -- -- -- 68
2019-09-23 08:00:00 16.5 4 Norte 8 Norte -- -- -- 70
2019-09-23 07:00:00 16.6 6 Norte 8 Norte -- -- -- 68
2019-09-23 06:00:00 17.2 4 Norte 10 Norte -- -- -- 64
2019-09-23 05:00:00 18.2 5 Norte 11 Norte -- -- -- 59
2019-09-23 04:00:00 19.7 6 Nordeste 14 Nordeste -- -- -- 51
2019-09-23 03:00:00 19.5 5 Norte 12 Norte -- -- -- 57
2019-09-23 02:00:00 19.3 2 Nordeste 10 Norte -- -- -- 60
2019-09-23 01:00:00 21.5 4 Nordeste 12 Norte -- -- -- 53
2019-09-23 00:00:00 21.9 8 Norte 17 Norte -- -- -- 52
2019-09-22 23:00:00 22.5 7 Norte 14 Noroeste -- -- -- 53
2019-09-22 22:00:00 22.9 10 Norte 18 Noroeste -- -- -- 54
2019-09-22 21:00:00 22 2 Norte 5 Nordeste -- -- -- 78
2019-09-22 20:00:00 23.6 2 Este 18 Sudoeste -- -- -- 72
2019-09-22 19:00:00 24.7 9 Sudoeste 30 Oeste -- -- -- 68
2019-09-22 18:00:00 25.5 13 Sudoeste 33 Sudoeste -- -- -- 68
2019-09-22 17:00:00 25.7 15 Oeste 37 Sudoeste -- -- -- 67
2019-09-22 16:00:00 25.8 21 Sudoeste 32 Sudoeste -- -- -- 71
2019-09-22 15:00:00 25.5 18 Sudoeste 34 Sudoeste -- -- -- 73
2019-09-22 14:00:00 25.1 22 Sudoeste 33 Sudoeste -- -- -- 73
2019-09-22 13:00:00 24.6 19 Sudoeste 28 Sudoeste -- -- -- 72
2019-09-22 12:00:00 24.2 12 Sudoeste 21 Sudoeste -- -- -- 70
2019-09-22 11:00:00 23.5 11 Sudoeste 15 Oeste -- -- -- 72
2019-09-22 10:00:00 22.2 5 Sudoeste 10 Sudoeste -- -- -- 78
2019-09-22 09:00:00 18.5 5 Norte 8 Norte -- -- -- 84
2019-09-22 08:00:00 18 4 Norte 6 Norte -- -- -- 84
2019-09-22 07:00:00 19.1 4 Norte 12 Norte -- -- -- 79
2019-09-22 06:00:00 18.8 4 Norte 9 Norte -- -- -- 84
2019-09-22 05:00:00 18.7 4 Norte 9 Norte -- -- -- 87
2019-09-22 04:00:00 19.2 3 Nordeste 8 Norte -- -- -- 90
2019-09-22 03:00:00 19.7 3 Norte 6 Norte -- -- -- 90
2019-09-22 02:00:00 20.3 0 Calma 4 Norte -- -- -- 88
2019-09-22 01:00:00 21.1 2 Sudeste 4 Sudeste -- -- -- 86
2019-09-22 00:00:00 21.6 4 Este 6 Sudoeste -- -- -- 83
2019-09-21 23:00:00 21.8 3 Sur 6 Sur -- -- -- 81
2019-09-21 22:00:00 22.4 3 Sudoeste 7 Sudoeste -- -- -- 83
2019-09-21 21:00:00 22.6 3 Sudoeste 5 Sudoeste -- -- -- 83
2019-09-21 20:00:00 22.9 3 Oeste 9 Oeste -- -- -- 84
2019-09-21 19:00:00 23.8 4 Sudoeste 10 Sudoeste -- -- -- 84
2019-09-21 18:00:00 24.7 8 Sudoeste 12 Sudoeste -- -- -- 78
2019-09-21 17:00:00 25.3 6 Sudoeste 12 Sudoeste -- -- -- 78
2019-09-21 16:00:00 25.6 8 Sudoeste 14 Sudoeste -- -- -- 77
2019-09-21 15:00:00 25.9 8 Sudoeste 13 Sudoeste -- -- -- 75
2019-09-21 14:00:00 26.1 6 Sudoeste 14 Oeste -- -- -- 77
2019-09-21 13:00:00 24.5 7 Sur 12 Sudoeste -- -- -- 85
2019-09-21 12:00:00 24.4 8 Sur 12 Sur -- -- -- 82
2019-09-21 11:00:00 25 9 Sur 14 Sur -- -- -- 80
2019-09-21 10:00:00 22.6 0 Calma 2 Norte -- -- -- 89
2019-09-21 09:00:00 21.5 0 Calma 5 Norte -- -- -- 93
2019-09-21 08:00:00 21.1 3 Norte 6 Norte -- -- -- 92
2019-09-21 07:00:00 21.3 4 Nordeste 6 Nordeste -- -- -- 92
2019-09-21 06:00:00 21.5 2 Norte 6 Nordeste -- -- -- 92
2019-09-21 05:00:00 22.1 3 Nordeste 5 Nordeste -- -- -- 90
2019-09-21 04:00:00 22.5 2 Sur 6 Sudeste -- -- -- 90
2019-09-21 03:00:00 22.4 3 Sudeste 4 Este -- -- -- 89
2019-09-21 02:00:00 23.1 3 Sudeste 11 Sudeste -- -- -- 86
2019-09-21 01:00:00 23.5 4 Sudeste 10 Sudeste -- -- -- 83
2019-09-21 00:00:00 23.4 2 Este 9 Sudeste -- -- -- 82
2019-09-20 23:00:00 23.6 2 Sur 6 Sur -- -- -- 80
2019-09-20 22:00:00 24 0 Calma 5 Oeste -- -- -- 78
2019-09-20 21:00:00 23.9 0 Calma 9 Sudoeste -- -- -- 78
2019-09-20 20:00:00 24.4 8 Sudoeste 12 Sudoeste -- -- -- 76
2019-09-20 19:00:00 24.8 5 Sur 9 Sur -- -- -- 74
2019-09-20 18:00:00 25 6 Sur 15 Sudeste -- -- -- 73
2019-09-20 17:00:00 25.6 10 Sur 19 Sudeste -- -- -- 69
2019-09-20 16:00:00 26.2 11 Sur 27 Sudeste -- -- -- 67
2019-09-20 15:00:00 26.5 12 Sudeste 32 Sudeste -- -- -- 66
2019-09-20 14:00:00 27.8 17 Sudeste 33 Sudeste -- -- -- 60
2019-09-20 13:00:00 26.8 17 Sudeste 33 Sudeste -- -- -- 68
2019-09-20 12:00:00 25.6 15 Sudeste 30 Este -- -- -- 71
2019-09-20 11:00:00 24.7 13 Sur 21 Sur -- -- -- 78
2019-09-20 10:00:00 24 5 Sudeste 13 Sur -- -- -- 82
2019-09-20 09:00:00 23 3 Sudeste 8 Sudeste -- -- -- 85
2019-09-20 08:00:00 21.9 4 Nordeste 6 Nordeste -- -- -- 85
2019-09-20 07:00:00 21.9 0 Calma 10 Noroeste -- -- -- 85
2019-09-20 06:00:00 22.7 0 Calma 10 Sudeste -- -- -- 88
2019-09-20 05:00:00 23.1 5 Sudeste 14 Este -- -- -- 86
2019-09-20 04:00:00 22.9 4 Sudeste 11 Sudeste -- -- -- 83
2019-09-20 03:00:00 21.9 3 Este 9 Este -- -- -- 85
2019-09-20 02:00:00 21 2 Nordeste 4 Nordeste -- -- -- 85
2019-09-20 01:00:00 20.9 2 Norte 4 Nordeste -- -- -- 83
2019-09-20 00:00:00 20.7 0 Calma 4 Nordeste -- -- -- 84
2019-09-19 23:00:00 21.2 3 Norte 4 Norte -- -- -- 88
2019-09-19 22:00:00 21.7 0 Calma 3 Norte -- -- -- 87
2019-09-19 21:00:00 22.5 2 Sudeste 7 Sur -- -- -- 84
2019-09-19 20:00:00 23.6 6 Sur 12 Sudeste -- -- -- 80
2019-09-19 19:00:00 25 9 Sur 18 Sudeste -- -- -- 71
2019-09-19 18:00:00 26.4 9 Sur 17 Sur -- -- -- 66
2019-09-19 17:00:00 26.5 14 Sur 20 Sur -- -- -- 68
2019-09-19 16:00:00 26.2 12 Sur 22 Sudoeste -- -- -- 69
2019-09-19 15:00:00 26.6 14 Sur 24 Sur -- -- -- 63
2019-09-19 14:00:00 25.4 15 Sur 26 Sudeste -- -- -- 73
2019-09-19 13:00:00 25.9 13 Sur 19 Sudeste -- -- -- 66
2019-09-19 12:00:00 25.5 8 Sur 14 Sudoeste -- -- -- 67
2019-09-19 11:00:00 23.9 3 Sudeste 11 Sudoeste -- -- -- 77
2019-09-19 10:00:00 22.2 3 Sudoeste 7 Sur -- -- -- 88
2019-09-19 09:00:00 19.3 0 Calma 5 Norte -- -- -- 94
2019-09-19 08:00:00 18.6 2 Norte 4 Nordeste -- -- -- 93
2019-09-19 07:00:00 18.9 0 Calma 9 Norte -- -- -- 92
2019-09-19 06:00:00 19 4 Norte 5 Norte -- -- -- 92
2019-09-19 05:00:00 19.3 3 Norte 5 Norte -- -- -- 91
2019-09-19 04:00:00 19.5 4 Nordeste 6 Norte -- -- -- 91
2019-09-19 03:00:00 20 4 Nordeste 6 Nordeste -- -- -- 91
2019-09-19 02:00:00 20.8 0 Calma 8 Este -- -- -- 90
2019-09-19 01:00:00 20.9 5 Este 8 Sudeste -- -- -- 88
2019-09-19 00:00:00 20.7 0 Calma 7 Sudoeste -- -- -- 86